Time;durP1;ratioP1;P1;durP2;ratioP2;P2;SDS_P1;SDS_P2;PMS_P1;PMS_P2;Temp;Humidity;BMP_temperature;BMP_pressure;BME280_temperature;BME280_humidity;BME280_pressure;Samples;Min_cycle;Max_cycle;Signal;HPM_P1;HPM_P2
2023/05/24 00:00:16;;;;;;;2.95;2.40;;;;;;;12.06;100.00;96013.47;1034114;28;20033;-72
2023/05/24 00:00:46;;;;;;;4.68;2.65;;;;;;;12.16;100.00;96015.31;1018367;29;20028;-72
2023/05/24 00:01:24;;;;;;;3.08;2.55;;;;;;;12.08;100.00;96013.22;1025404;28;20532;-71
2023/05/24 00:01:55;;;;;;;3.17;2.80;;;;;;;12.11;100.00;96010.06;1030029;28;20026;-71
2023/05/24 00:02:26;;;;;;;2.55;2.35;;;;;;;12.11;100.00;96018.75;1022111;29;20031;-72
2023/05/24 00:02:56;;;;;;;3.03;2.67;;;;;;;12.09;100.00;96020.06;1023734;28;20050;-72
2023/05/24 00:03:29;;;;;;;3.20;2.80;;;;;;;11.92;100.00;95994.81;1026020;28;20532;-72
2023/05/24 00:04:00;;;;;;;3.60;3.22;;;;;;;12.03;100.00;96011.38;1029897;28;20026;-72
2023/05/24 00:04:30;;;;;;;4.20;3.35;;;;;;;12.06;100.00;96016.09;1026397;28;20285;-72
2023/05/24 00:05:01;;;;;;;3.42;2.88;;;;;;;12.04;100.00;96018.22;1032372;28;20054;-71
2023/05/24 00:05:31;;;;;;;4.18;3.30;;;;;;;12.07;100.00;96020.31;1022376;28;20077;-72
2023/05/24 00:06:05;;;;;;;4.00;3.10;;;;;;;12.02;100.00;96026.38;1018162;29;20028;-72
2023/05/24 00:06:36;;;;;;;4.03;3.42;;;;;;;12.03;100.00;96022.66;1018351;29;20034;-72
2023/05/24 00:07:06;;;;;;;4.28;3.50;;;;;;;12.01;100.00;96019.53;1018012;29;20130;-72
2023/05/24 00:07:37;;;;;;;3.83;3.35;;;;;;;11.97;100.00;96015.88;1022445;29;20034;-72
2023/05/24 00:08:07;;;;;;;5.10;3.20;;;;;;;11.99;100.00;96018.22;1018138;28;20116;-71
2023/05/24 00:08:38;;;;;;;4.75;3.00;;;;;;;11.99;100.00;96021.63;1022142;29;20448;-72
2023/05/24 00:09:08;;;;;;;3.42;3.10;;;;;;;11.96;100.00;96014.25;1022301;29;20031;-71
2023/05/24 00:09:39;;;;;;;3.30;3.00;;;;;;;12.01;100.00;96016.13;1030268;28;20034;-71
2023/05/24 00:10:10;;;;;;;3.25;2.95;;;;;;;11.98;100.00;96001.66;1022016;28;20031;-71
2023/05/24 00:10:41;;;;;;;3.58;3.15;;;;;;;12.05;100.00;96011.13;1030224;28;20490;-71
2023/05/24 00:11:12;;;;;;;5.60;3.40;;;;;;;12.02;100.00;96004.53;1025530;28;20082;-72
2023/05/24 00:11:42;;;;;;;5.88;3.65;;;;;;;12.08;100.00;96007.97;1026215;28;20471;-72
2023/05/24 00:12:13;;;;;;;5.70;3.70;;;;;;;12.02;100.00;96000.06;1028902;28;20121;-72
2023/05/24 00:12:43;;;;;;;6.28;3.25;;;;;;;12.10;100.00;96005.84;1018156;29;20816;-72
2023/05/24 00:13:14;;;;;;;9.07;3.35;;;;;;;12.12;100.00;96009.00;1022293;29;20031;-72
2023/05/24 00:13:44;;;;;;;4.45;3.42;;;;;;;12.08;100.00;96002.69;1032538;28;20512;-72
2023/05/24 00:14:15;;;;;;;4.07;3.33;;;;;;;12.12;100.00;96009.00;1030144;28;20455;-72
2023/05/24 00:14:45;;;;;;;4.65;3.60;;;;;;;12.10;100.00;96006.63;1018343;29;20349;-72
2023/05/24 00:15:16;;;;;;;4.07;3.40;;;;;;;12.10;100.00;96005.84;1022030;28;20027;-72
2023/05/24 00:15:46;;;;;;;4.22;3.30;;;;;;;12.12;100.00;96007.16;1020606;28;20038;-72
2023/05/24 00:16:17;;;;;;;4.55;3.25;;;;;;;12.12;100.00;96004.53;1018126;29;20470;-72
2023/05/24 00:16:47;;;;;;;4.43;3.45;;;;;;;12.14;100.00;96007.69;1022144;28;20185;-72
2023/05/24 00:17:18;;;;;;;3.88;3.47;;;;;;;12.16;100.00;96004.78;1026068;28;20026;-71
2023/05/24 00:17:48;;;;;;;3.72;3.30;;;;;;;12.18;100.00;96007.94;1018152;28;20623;-72
2023/05/24 00:18:19;;;;;;;3.70;3.30;;;;;;;12.20;100.00;96006.59;1022132;29;20130;-71
2023/05/24 00:18:51;;;;;;;4.70;3.55;;;;;;;12.19;100.00;96004.25;1018225;28;20526;-72
2023/05/24 00:19:21;;;;;;;4.45;3.40;;;;;;;12.19;100.00;96005.03;1015868;29;20032;-72
2023/05/24 00:19:52;;;;;;;4.20;3.38;;;;;;;12.18;100.00;96002.69;1026307;28;20058;-72
2023/05/24 00:20:22;;;;;;;8.68;3.88;;;;;;;12.20;100.00;96003.19;1026077;28;20029;-72
2023/05/24 00:20:55;;;;;;;5.85;3.58;;;;;;;12.18;100.00;95998.22;1025869;28;20031;-72
2023/05/24 00:21:26;;;;;;;4.38;3.20;;;;;;;12.13;100.00;95994.78;1029446;28;20399;-71
2023/05/24 00:21:57;;;;;;;5.05;3.50;;;;;;;12.18;100.00;95997.44;1022213;29;20058;-72
2023/05/24 00:22:27;;;;;;;4.70;3.55;;;;;;;12.17;100.00;96003.72;1030044;28;20077;-71
2023/05/24 00:22:58;;;;;;;4.38;3.67;;;;;;;12.14;100.00;96002.44;1030027;28;20424;-72
2023/05/24 00:23:28;;;;;;;9.50;4.05;;;;;;;12.13;100.00;96000.84;1026131;28;20327;-72
2023/05/24 00:23:59;;;;;;;4.07;3.42;;;;;;;12.17;100.00;96006.34;1030295;28;20233;-72
2023/05/24 00:24:29;;;;;;;4.57;3.30;;;;;;;12.17;100.00;96003.72;1026036;28;20061;-72
2023/05/24 00:25:00;;;;;;;4.10;3.70;;;;;;;12.17;100.00;95996.63;1022054;28;20078;-72
2023/05/24 00:25:30;;;;;;;4.75;3.60;;;;;;;12.15;100.00;96001.38;1030170;28;20081;-71
2023/05/24 00:26:02;;;;;;;4.75;3.65;;;;;;;12.14;100.00;96004.25;1022006;29;20130;-71
2023/05/24 00:26:32;;;;;;;4.07;3.38;;;;;;;12.10;100.00;96006.63;1030230;28;20019;-72
2023/05/24 00:27:03;;;;;;;3.92;3.47;;;;;;;12.10;100.00;96005.84;1034081;28;20292;-71
2023/05/24 00:27:36;;;;;;;4.00;3.42;;;;;;;12.11;100.00;96002.19;1026708;28;20031;-72
2023/05/24 00:28:06;;;;;;;5.97;3.40;;;;;;;12.11;100.00;96002.19;1022047;28;20358;-71
2023/05/24 00:28:37;;;;;;;5.65;3.72;;;;;;;12.10;100.00;95997.94;1018316;29;20819;-72
2023/05/24 00:29:07;;;;;;;3.97;3.33;;;;;;;12.10;100.00;95997.94;1022033;29;20031;-72
2023/05/24 00:29:38;;;;;;;4.05;3.15;;;;;;;12.11;100.00;96004.81;1030126;28;20018;-72
2023/05/24 00:30:08;;;;;;;5.68;3.60;;;;;;;12.11;100.00;96000.31;1022161;29;20023;-72
2023/05/24 00:30:39;;;;;;;6.72;4.10;;;;;;;12.13;100.00;96000.06;1018314;29;20068;-71
2023/05/24 00:31:09;;;;;;;4.05;3.50;;;;;;;12.13;100.00;96000.84;1026230;28;20155;-71
2023/05/24 00:31:40;;;;;;;5.25;3.47;;;;;;;12.09;100.00;95999.78;1026219;28;20027;-72
2023/05/24 00:32:10;;;;;;;3.78;3.35;;;;;;;12.09;100.00;95999.00;1034243;28;20060;-72
2023/05/24 00:32:41;;;;;;;4.85;3.80;;;;;;;12.08;100.00;96000.06;1026166;28;20029;-71
2023/05/24 00:33:11;;;;;;;3.47;3.15;;;;;;;12.11;100.00;95997.69;1017918;29;20470;-72
2023/05/24 00:33:42;;;;;;;4.20;3.80;;;;;;;12.08;100.00;96007.97;1034177;28;20551;-71
2023/05/24 00:34:12;;;;;;;4.82;3.70;;;;;;;12.12;100.00;96003.75;1034217;28;20029;-71
2023/05/24 00:34:43;;;;;;;5.40;3.63;;;;;;;12.10;100.00;95996.09;1018103;29;20039;-71
2023/05/24 00:35:13;;;;;;;5.00;3.25;;;;;;;12.14;100.00;96006.88;1033985;28;20049;-71
2023/05/24 00:35:44;;;;;;;5.07;3.40;;;;;;;12.14;100.00;96007.69;1018197;28;20047;-71
2023/05/24 00:36:14;;;;;;;4.80;3.40;;;;;;;12.12;100.00;96001.13;1033982;28;20030;-71
2023/05/24 00:36:45;;;;;;;4.63;3.53;;;;;;;12.11;100.00;96002.97;1026135;28;20165;-71
2023/05/24 00:37:16;;;;;;;8.27;3.70;;;;;;;12.12;100.00;96004.53;1037977;28;20026;-70
2023/05/24 00:37:47;;;;;;;5.65;3.78;;;;;;;12.11;100.00;96000.31;1029100;28;20074;-71
2023/05/24 00:38:17;;;;;;;3.90;3.50;;;;;;;12.09;100.00;95999.00;1025602;28;20062;-71
2023/05/24 00:38:48;;;;;;;4.82;3.80;;;;;;;12.09;100.00;96001.63;1022179;29;20047;-72
2023/05/24 00:39:18;;;;;;;4.43;3.40;;;;;;;12.07;100.00;95987.94;1018111;29;20032;-71
2023/05/24 00:39:49;;;;;;;3.25;2.95;;;;;;;12.09;100.00;95993.75;1021998;28;20312;-72
2023/05/24 00:40:19;;;;;;;3.95;3.55;;;;;;;12.08;100.00;95995.59;1026086;28;20033;-72
2023/05/24 00:40:50;;;;;;;4.10;3.38;;;;;;;12.09;100.00;95996.38;1018244;29;20059;-71
2023/05/24 00:41:21;;;;;;;4.65;3.40;;;;;;;12.10;100.00;95993.47;1028150;28;20027;-71
2023/05/24 00:41:53;;;;;;;4.00;3.17;;;;;;;12.10;100.00;95996.09;1022051;29;20062;-71
2023/05/24 00:42:23;;;;;;;3.83;3.45;;;;;;;12.10;100.00;95996.09;1022177;29;20019;-72
2023/05/24 00:42:54;;;;;;;3.78;3.40;;;;;;;12.10;100.00;95990.06;1026113;28;20643;-71
2023/05/24 00:43:24;;;;;;;3.90;3.50;;;;;;;12.07;100.00;95994.00;1029397;28;20567;-72
2023/05/24 00:43:55;;;;;;;4.25;3.78;;;;;;;12.04;100.00;95997.19;1034067;28;20113;-71
2023/05/24 00:44:25;;;;;;;5.03;3.85;;;;;;;12.05;100.00;95992.72;1030052;28;20026;-71
2023/05/24 00:44:56;;;;;;;4.13;3.42;;;;;;;12.05;100.00;95998.75;1015690;29;20422;-72
2023/05/24 00:45:26;;;;;;;4.22;3.70;;;;;;;12.07;100.00;95996.63;1030010;28;20031;-72
2023/05/24 00:46:14;;;;;;;4.00;3.60;;;;;;;12.07;100.00;95990.59;1026059;28;20125;-72
2023/05/24 00:46:45;;;;;;;7.15;3.60;;;;;;;12.02;100.00;95984.28;1025308;28;20031;-71
2023/05/24 00:47:15;;;;;;;4.00;3.40;;;;;;;12.08;100.00;95994.81;1034135;28;20026;-72
2023/05/24 00:47:46;;;;;;;4.53;3.83;;;;;;;12.07;100.00;95993.22;1022017;28;20019;-71
2023/05/24 00:48:17;;;;;;;5.93;3.63;;;;;;;12.07;100.00;95995.84;1025921;28;20041;-71
2023/05/24 00:48:47;;;;;;;4.60;3.60;;;;;;;12.02;100.00;95989.53;1030268;28;20575;-72
2023/05/24 00:49:18;;;;;;;4.00;3.60;;;;;;;12.05;100.00;95993.50;1026096;28;20343;-71
2023/05/24 00:49:48;;;;;;;4.22;3.70;;;;;;;12.02;100.00;95986.13;1029916;28;20041;-72
2023/05/24 00:50:19;;;;;;;8.40;3.85;;;;;;;12.01;100.00;95987.19;1022054;28;20031;-71
2023/05/24 00:50:50;;;;;;;4.05;3.28;;;;;;;12.00;100.00;95983.78;1018130;29;20046;-72
2023/05/24 00:51:20;;;;;;;4.47;3.72;;;;;;;11.96;100.00;95985.34;1025395;28;20057;-71
2023/05/24 00:51:51;;;;;;;5.03;4.13;;;;;;;11.98;100.00;95988.50;1033933;28;20069;-71
2023/05/24 00:52:22;;;;;;;3.97;3.58;;;;;;;11.98;100.00;95985.88;1025982;28;20121;-71
2023/05/24 00:52:52;;;;;;;7.20;4.05;;;;;;;11.97;100.00;95980.84;1022148;28;20511;-72
2023/05/24 00:53:24;;;;;;;5.57;4.13;;;;;;;12.02;100.00;95983.50;1027751;28;20126;-71
2023/05/24 00:53:55;;;;;;;4.70;3.45;;;;;;;11.97;100.00;95979.03;1026092;28;20853;-72
2023/05/24 00:54:25;;;;;;;4.00;3.40;;;;;;;11.98;100.00;95987.72;1033995;28;20064;-71
2023/05/24 00:54:56;;;;;;;4.90;4.13;;;;;;;12.01;100.00;95987.97;1025972;28;20035;-72
2023/05/24 00:55:27;;;;;;;4.82;3.95;;;;;;;12.00;100.00;95983.78;1026126;28;20414;-72
2023/05/24 00:55:58;;;;;;;4.10;3.70;;;;;;;11.97;100.00;95983.50;1029986;28;20297;-72
2023/05/24 00:56:30;;;;;;;3.30;2.97;;;;;;;12.00;100.00;95989.03;1021928;29;20027;-72
2023/05/24 00:57:00;;;;;;;5.57;4.03;;;;;;;11.97;100.00;95984.31;1022055;28;20042;-72
2023/05/24 00:57:31;;;;;;;3.78;3.47;;;;;;;11.97;100.00;95989.56;1018073;29;20030;-71
2023/05/24 00:58:01;;;;;;;4.18;3.30;;;;;;;11.98;100.00;95987.72;1018063;29;20023;-72
2023/05/24 00:58:32;;;;;;;5.25;3.88;;;;;;;12.01;100.00;95985.34;1016233;29;20040;-71
2023/05/24 00:59:02;;;;;;;3.83;3.03;;;;;;;11.96;100.00;95985.34;1030042;28;20037;-71
2023/05/24 00:59:33;;;;;;;4.75;3.80;;;;;;;11.98;100.00;95993.75;1030085;28;20039;-71
2023/05/24 01:00:04;;;;;;;3.90;3.50;;;;;;;11.98;100.00;95987.72;1025947;28;20026;-72
2023/05/24 01:00:35;;;;;;;5.22;3.85;;;;;;;12.02;100.00;95986.13;1025902;28;20043;-71
2023/05/24 01:01:07;;;;;;;4.28;3.60;;;;;;;12.02;100.00;95989.53;1029551;28;20491;-72
2023/05/24 01:01:37;;;;;;;5.30;3.55;;;;;;;12.06;100.00;95995.06;1025865;28;20083;-72
2023/05/24 01:02:08;;;;;;;3.90;3.47;;;;;;;12.09;100.00;95988.50;1025860;28;20030;-72
2023/05/24 01:02:38;;;;;;;5.78;4.43;;;;;;;12.09;100.00;95991.13;1026128;28;20565;-71
2023/05/24 01:03:09;;;;;;;6.22;3.40;;;;;;;12.09;100.00;95988.50;1026013;28;20034;-72
2023/05/24 01:03:40;;;;;;;4.70;3.88;;;;;;;12.10;100.00;95987.44;1024496;28;20444;-72
2023/05/24 01:04:11;;;;;;;3.97;3.58;;;;;;;12.07;100.00;95986.09;1034172;28;20542;-72
2023/05/24 01:04:41;;;;;;;4.28;3.70;;;;;;;12.09;100.00;95988.50;1021978;29;20665;-72
2023/05/24 01:05:12;;;;;;;4.10;3.63;;;;;;;12.06;100.00;95976.66;1023289;28;20035;-71
2023/05/24 01:05:42;;;;;;;4.10;3.60;;;;;;;12.12;100.00;95982.69;1026100;28;20027;-72
2023/05/24 01:06:14;;;;;;;3.92;3.50;;;;;;;12.11;100.00;95981.91;1018202;29;20462;-72
2023/05/24 01:07:06;;;;;;;4.05;3.55;;;;;;;12.09;100.00;95977.97;1021806;28;20031;-71
2023/05/24 01:08:04;;;;;;;7.30;3.85;;;;;;;12.10;100.00;95977.69;1018097;29;20400;-72
2023/05/24 01:08:41;;;;;;;5.35;3.60;;;;;;;12.08;100.00;95986.91;1029703;28;20655;-71
2023/05/24 01:09:36;;;;;;;4.53;3.67;;;;;;;12.08;100.00;95984.28;1027796;28;20372;-71
2023/05/24 01:10:25;;;;;;;4.07;3.40;;;;;;;12.10;100.00;95984.78;1029880;28;20259;-72
2023/05/24 01:11:00;;;;;;;6.03;3.35;;;;;;;12.02;100.00;95971.13;1031519;28;20257;-71
2023/05/24 01:12:01;;;;;;;3.97;3.38;;;;;;;12.05;100.00;95988.22;1033887;28;20488;-71
2023/05/24 01:12:51;;;;;;;3.85;2.92;;;;;;;12.07;100.00;95986.09;1018090;29;20023;-72
2023/05/24 01:13:25;;;;;;;3.67;3.20;;;;;;;12.08;100.00;95986.91;1024698;28;20278;-71
2023/05/24 01:14:02;;;;;;;3.95;3.45;;;;;;;12.07;100.00;95980.06;1029819;28;20204;-72
2023/05/24 01:14:51;;;;;;;7.10;4.15;;;;;;;12.03;100.00;95980.59;1022075;28;20275;-71
2023/05/24 01:15:21;;;;;;;5.20;4.00;;;;;;;12.03;100.00;95983.22;1015878;29;20738;-72
2023/05/24 01:15:58;;;;;;;7.80;3.88;;;;;;;12.06;100.00;95983.75;1017476;29;20336;-71
2023/05/24 01:16:50;;;;;;;6.90;3.63;;;;;;;12.03;100.00;95977.97;1025165;28;20109;-71
2023/05/24 01:17:41;;;;;;;6.10;3.25;;;;;;;12.07;100.00;95990.59;1029054;28;20261;-71
2023/05/24 01:18:11;;;;;;;4.80;3.25;;;;;;;12.07;100.00;95987.94;1030754;28;20508;-71
2023/05/24 01:18:47;;;;;;;3.65;3.22;;;;;;;12.03;100.00;95980.59;1030263;28;20038;-72
2023/05/24 01:19:45;;;;;;;4.97;3.85;;;;;;;11.99;100.00;95984.81;1023139;28;20035;-72
2023/05/24 01:20:16;;;;;;;5.30;3.22;;;;;;;12.00;100.00;95981.16;1026013;28;20141;-72
2023/05/24 01:20:47;;;;;;;5.07;3.67;;;;;;;12.02;100.00;95984.28;1030144;28;20758;-71
2023/05/24 01:21:58;;;;;;;6.28;3.80;;;;;;;12.00;100.00;95981.16;1025221;28;20453;-72
2023/05/24 01:22:38;;;;;;;;;;;;;;;11.98;100.00;95970.09;1022344;29;20227;-72
2023/05/24 01:23:13;;;;;;;3.63;2.90;;;;;;;11.99;100.00;95978.78;1021780;29;19915;-71
2023/05/24 01:24:04;;;;;;;4.35;3.63;;;;;;;11.98;100.00;95969.31;1026058;28;20321;-72
2023/05/24 01:24:49;;;;;;;4.20;3.22;;;;;;;12.01;100.00;95972.19;1028620;28;20495;-71
2023/05/24 01:25:52;;;;;;;4.57;3.58;;;;;;;11.97;100.00;95979.03;1025326;28;20548;-72
2023/05/24 01:26:54;;;;;;;4.22;3.65;;;;;;;11.97;100.00;95976.41;1033458;28;20049;-72
2023/05/24 01:27:24;;;;;;;4.18;3.10;;;;;;;11.98;100.00;95975.34;1021864;28;20358;-72
2023/05/24 01:27:55;;;;;;;3.50;3.17;;;;;;;12.00;100.00;95973.25;1031576;28;20068;-72
2023/05/24 01:28:25;;;;;;;4.50;3.83;;;;;;;11.94;100.00;95970.91;1018054;29;20050;-71
2023/05/24 01:28:56;;;;;;;4.55;3.70;;;;;;;11.95;100.00;95977.72;1026128;28;20497;-72
2023/05/24 01:29:26;;;;;;;4.80;3.65;;;;;;;11.97;100.00;95973.78;1029746;28;20030;-72
2023/05/24 01:29:57;;;;;;;4.95;3.85;;;;;;;11.98;100.00;95975.34;1022042;28;20119;-71
2023/05/24 01:30:27;;;;;;;5.25;4.32;;;;;;;11.98;100.00;95974.56;1029967;28;20493;-71
2023/05/24 01:30:58;;;;;;;6.80;4.72;;;;;;;11.97;100.00;95981.69;1025843;28;20027;-73
2023/05/24 01:31:28;;;;;;;20.30;4.57;;;;;;;11.97;100.00;95979.03;1025276;28;20033;-71
2023/05/24 01:31:59;;;;;;;7.00;4.57;;;;;;;11.95;100.00;95980.34;1029961;28;20037;-72
2023/05/24 01:32:29;;;;;;;5.05;4.28;;;;;;;11.98;100.00;95985.88;1018135;29;20030;-71
2023/05/24 01:33:00;;;;;;;7.32;4.47;;;;;;;11.95;100.00;95983.78;1024026;28;20082;-72
2023/05/24 01:33:31;;;;;;;6.80;4.22;;;;;;;11.98;100.00;95985.09;1038045;28;20115;-71
2023/05/24 01:34:01;;;;;;;6.88;4.35;;;;;;;11.98;100.00;95985.88;1029937;28;20027;-72
2023/05/24 01:34:32;;;;;;;6.25;4.80;;;;;;;11.91;100.00;95988.00;1029802;28;20140;-71
2023/05/24 01:35:03;;;;;;;7.32;4.82;;;;;;;11.95;100.00;95994.28;1021995;29;20067;-71
2023/05/24 01:35:39;;;;;;;7.22;4.78;;;;;;;11.91;100.00;95988.00;1025872;28;20242;-72
2023/05/24 01:36:09;;;;;;;5.05;4.28;;;;;;;11.97;100.00;95994.00;1033886;28;20026;-71
2023/05/24 01:36:40;;;;;;;6.53;4.25;;;;;;;11.94;100.00;95997.97;1026006;28;20747;-71
2023/05/24 01:37:10;;;;;;;6.25;4.05;;;;;;;11.96;100.00;96001.13;1026051;28;20035;-72
2023/05/24 01:37:41;;;;;;;6.50;4.55;;;;;;;11.98;100.00;95993.75;1025782;28;20047;-71
2023/05/24 01:38:11;;;;;;;5.10;4.35;;;;;;;11.93;100.00;95993.75;1017994;29;20224;-71
2023/05/24 01:38:42;;;;;;;6.80;4.50;;;;;;;11.97;100.00;95992.19;1025798;28;20404;-71
2023/05/24 01:39:12;;;;;;;6.00;4.60;;;;;;;11.94;100.00;95992.72;1018061;28;20044;-71
2023/05/24 01:39:43;;;;;;;6.07;4.50;;;;;;;11.94;100.00;95992.72;1036235;28;20049;-72
2023/05/24 01:40:13;;;;;;;5.57;4.32;;;;;;;11.93;100.00;95998.22;1033985;28;20045;-70
2023/05/24 01:40:44;;;;;;;4.80;4.10;;;;;;;11.89;100.00;95995.34;1026085;28;20026;-71
2023/05/24 01:41:36;;;;;;;5.72;4.45;;;;;;;11.93;100.00;95999.00;1021139;29;20477;-71
2023/05/24 01:42:30;;;;;;;6.50;4.35;;;;;;;11.90;100.00;95998.75;1021982;28;20189;-72
2023/05/24 01:43:04;;;;;;;7.20;4.63;;;;;;;11.83;100.00;95996.34;1032013;28;20076;-71
2023/05/24 01:43:37;;;;;;;6.38;4.70;;;;;;;11.81;100.00;95998.47;1023789;28;20121;-72
2023/05/24 01:44:42;;;;;;;5.95;4.35;;;;;;;11.75;100.00;95996.91;1026014;28;20031;-72
2023/05/24 01:45:29;;;;;;;5.68;4.22;;;;;;;11.80;100.00;96005.59;1022120;28;20023;-72
2023/05/24 01:46:21;;;;;;;5.28;3.72;;;;;;;11.83;100.00;96001.63;1025964;28;20324;-71
2023/05/24 01:47:03;;;;;;;5.22;4.40;;;;;;;11.76;100.00;96007.13;1025980;28;20282;-71
2023/05/24 01:47:52;;;;;;;8.23;5.25;;;;;;;11.77;100.00;96007.94;1029974;28;20348;-72
2023/05/24 01:48:44;;;;;;;5.70;4.57;;;;;;;11.79;100.00;96003.19;1032385;28;20921;-71
2023/05/24 01:49:22;;;;;;;5.82;4.78;;;;;;;11.78;100.00;95996.38;1024760;28;20738;-72
2023/05/24 01:50:00;;;;;;;5.68;4.20;;;;;;;11.79;100.00;95997.94;1023000;28;20279;-71
2023/05/24 01:50:31;;;;;;;6.07;5.18;;;;;;;11.75;100.00;96005.56;1025913;28;20310;-72
2023/05/24 01:51:05;;;;;;;6.63;4.72;;;;;;;11.75;100.00;95989.78;1021491;29;20263;-72
2023/05/24 01:51:40;;;;;;;6.47;4.80;;;;;;;11.80;100.00;95994.25;1033737;28;20427;-72
2023/05/24 01:52:11;;;;;;;6.57;5.07;;;;;;;11.79;100.00;95993.47;1026009;28;20258;-71
2023/05/24 01:52:42;;;;;;;8.15;5.50;;;;;;;11.79;100.00;95996.09;1021930;29;20306;-71
2023/05/24 01:53:13;;;;;;;7.25;5.03;;;;;;;11.77;100.00;95998.22;1029769;28;20258;-72
2023/05/24 01:53:45;;;;;;;6.22;4.95;;;;;;;11.79;100.00;96000.56;1021977;29;20712;-71
2023/05/24 01:54:19;;;;;;;6.03;5.03;;;;;;;11.82;100.00;96004.53;1013963;29;20043;-72
2023/05/24 01:54:52;;;;;;;7.80;4.97;;;;;;;11.83;100.00;96006.09;1026393;28;20030;-72
2023/05/24 01:55:23;;;;;;;7.95;5.32;;;;;;;11.81;100.00;95993.22;1030597;28;20436;-72
2023/05/24 01:55:55;;;;;;;8.40;5.45;;;;;;;11.76;100.00;95998.47;1022752;29;20117;-71
2023/05/24 01:56:26;;;;;;;6.65;5.30;;;;;;;11.78;100.00;96006.91;1026508;28;20583;-72
2023/05/24 01:56:56;;;;;;;6.05;5.00;;;;;;;11.73;100.00;96007.66;1026484;28;20022;-72
2023/05/24 01:57:27;;;;;;;9.43;5.47;;;;;;;11.76;100.00;96011.63;1022659;29;20042;-72
2023/05/24 01:57:59;;;;;;;7.38;5.05;;;;;;;11.75;100.00;96002.94;1026701;28;20034;-71
2023/05/24 01:58:30;;;;;;;8.55;5.05;;;;;;;11.73;100.00;96006.88;1018365;29;20379;-71
2023/05/24 01:59:00;;;;;;;8.60;5.38;;;;;;;11.72;100.00;96007.94;1022782;29;20061;-71
2023/05/24 01:59:31;;;;;;;8.25;5.30;;;;;;;11.68;100.00;96009.53;1034722;28;20026;-71
2023/05/24 02:00:02;;;;;;;8.82;5.32;;;;;;;11.68;100.00;96006.91;1026573;28;20527;-72
2023/05/24 02:00:32;;;;;;;7.10;5.20;;;;;;;11.67;100.00;96010.56;1034588;28;20029;-72
2023/05/24 02:01:03;;;;;;;7.28;5.32;;;;;;;11.64;100.00;96009.25;1030270;28;20512;-71
2023/05/24 02:01:33;;;;;;;7.35;5.20;;;;;;;11.60;100.00;96007.41;1018646;29;20501;-71
2023/05/24 02:02:04;;;;;;;6.60;5.18;;;;;;;11.69;100.00;96006.63;1034050;28;20034;-72
2023/05/24 02:02:35;;;;;;;7.75;5.55;;;;;;;11.68;100.00;96006.91;1018667;29;20548;-71
2023/05/24 02:03:05;;;;;;;8.07;5.20;;;;;;;11.62;100.00;96007.94;1026749;28;20118;-72
2023/05/24 02:03:39;;;;;;;7.80;5.07;;;;;;;11.59;100.00;96005.81;1032585;28;20074;-72
2023/05/24 02:04:09;;;;;;;8.23;4.97;;;;;;;11.60;100.00;96004.78;1026787;28;20039;-72
2023/05/24 02:04:40;;;;;;;7.88;5.07;;;;;;;11.59;100.00;96005.81;1026586;28;20027;-72
2023/05/24 02:05:10;;;;;;;6.40;5.00;;;;;;;11.62;100.00;96006.09;1023638;28;20031;-71
2023/05/24 02:05:43;;;;;;;7.45;5.28;;;;;;;11.59;100.00;96003.97;1026610;28;20619;-72
2023/05/24 02:06:13;;;;;;;9.05;5.60;;;;;;;11.63;100.00;96006.88;1022629;29;20417;-71
2023/05/24 02:06:44;;;;;;;8.10;5.28;;;;;;;11.59;100.00;96009.25;1018774;29;20035;-72
2023/05/24 02:07:14;;;;;;;10.55;6.03;;;;;;;11.53;100.00;95997.91;1026389;28;20027;-72
2023/05/24 02:07:45;;;;;;;10.50;5.80;;;;;;;11.56;100.00;96005.28;1026638;28;20503;-72
2023/05/24 02:08:15;;;;;;;6.63;5.75;;;;;;;11.55;100.00;96011.59;1022620;28;20117;-71
2023/05/24 02:08:46;;;;;;;7.07;5.20;;;;;;;11.56;100.00;96002.66;1028013;28;22298;-72
2023/05/24 02:09:16;;;;;;;9.70;5.78;;;;;;;11.53;100.00;96008.44;1026423;28;20018;-72
2023/05/24 02:09:47;;;;;;;8.50;5.35;;;;;;;11.46;100.00;95994.78;1030680;28;20022;-72
2023/05/24 02:10:18;;;;;;;7.80;5.43;;;;;;;11.56;100.00;96005.28;1026529;28;20117;-71
2023/05/24 02:10:48;;;;;;;8.32;6.20;;;;;;;11.60;100.00;96007.41;1038864;28;20176;-72
2023/05/24 02:11:19;;;;;;;7.05;5.60;;;;;;;11.59;100.00;96005.81;1025743;28;20124;-71
2023/05/24 02:11:50;;;;;;;7.65;5.10;;;;;;;11.59;100.00;96011.09;1030693;28;20467;-71
2023/05/24 02:12:20;;;;;;;9.77;5.38;;;;;;;11.61;100.00;96006.38;1030429;28;20066;-72
2023/05/24 02:12:51;;;;;;;7.05;5.40;;;;;;;11.61;100.00;96006.38;1030490;28;20085;-71
2023/05/24 02:13:21;;;;;;;9.75;5.70;;;;;;;11.58;100.00;96010.31;1026233;28;20019;-72
2023/05/24 02:13:52;;;;;;;6.60;5.05;;;;;;;11.60;100.00;96002.91;1026648;28;20385;-72
2023/05/24 02:14:23;;;;;;;8.82;5.28;;;;;;;11.63;100.00;96002.41;1022753;29;20027;-71
2023/05/24 02:14:53;;;;;;;10.80;5.43;;;;;;;11.46;100.00;95978.22;1034737;28;20034;-72
2023/05/24 02:15:25;;;;;;;8.70;5.80;;;;;;;11.63;100.00;96006.88;1027380;28;20110;-72
2023/05/24 02:15:55;;;;;;;8.43;5.40;;;;;;;11.65;100.00;95999.53;1014788;29;20108;-72
2023/05/24 02:16:29;;;;;;;7.95;5.13;;;;;;;11.66;100.00;96006.34;1022571;29;20066;-72
2023/05/24 02:17:01;;;;;;;10.65;4.97;;;;;;;11.65;100.00;96007.41;1026835;28;20026;-72
2023/05/24 02:17:31;;;;;;;12.55;6.00;;;;;;;11.67;100.00;96008.72;1026522;28;20086;-72
2023/05/24 02:18:03;;;;;;;8.63;5.72;;;;;;;11.63;100.00;96012.13;1026695;28;20095;-72
2023/05/24 02:18:33;;;;;;;9.57;5.38;;;;;;;11.63;100.00;96007.66;1030754;28;20302;-71
2023/05/24 02:19:04;;;;;;;7.28;5.35;;;;;;;11.61;100.00;96011.63;1034798;28;20460;-72
2023/05/24 02:19:35;;;;;;;8.13;5.03;;;;;;;11.57;100.00;96009.50;1034431;28;20108;-72
2023/05/24 02:20:06;;;;;;;7.38;5.18;;;;;;;11.49;100.00;96002.13;1030752;28;20062;-71
2023/05/24 02:20:37;;;;;;;7.57;4.80;;;;;;;11.53;100.00;96013.69;1026631;28;20030;-72
2023/05/24 02:21:07;;;;;;;7.75;5.03;;;;;;;11.55;100.00;96006.34;1034132;28;20022;-72
2023/05/24 02:21:38;;;;;;;9.63;5.05;;;;;;;11.48;100.00;96003.19;1030892;28;20046;-72
2023/05/24 02:22:09;;;;;;;6.43;4.90;;;;;;;11.47;100.00;96001.63;1019355;28;20087;-72
2023/05/24 02:22:40;;;;;;;6.95;4.70;;;;;;;11.43;100.00;95992.66;1029033;28;20332;-72
2023/05/24 02:23:10;;;;;;;8.57;4.85;;;;;;;11.39;100.00;96006.59;1022398;29;20019;-71
2023/05/24 02:23:41;;;;;;;8.30;6.03;;;;;;;11.37;100.00;96001.59;1027344;28;20182;-72
2023/05/24 02:24:11;;;;;;;6.65;4.53;;;;;;;11.38;100.00;96000.56;1023458;29;20023;-71
2023/05/24 02:24:42;;;;;;;5.90;4.32;;;;;;;11.43;100.00;96003.16;1022932;28;20019;-72
2023/05/24 02:25:12;;;;;;;9.20;5.10;;;;;;;11.43;100.00;95997.91;1023095;28;20027;-71
2023/05/24 02:25:43;;;;;;;7.35;4.85;;;;;;;11.45;100.00;95995.81;1026991;28;20441;-72
2023/05/24 02:26:16;;;;;;;6.88;5.03;;;;;;;11.40;100.00;95982.69;1027120;28;20030;-72
2023/05/24 02:26:47;;;;;;;6.93;4.05;;;;;;;11.42;100.00;96006.84;1035517;28;20400;-72
2023/05/24 02:27:17;;;;;;;6.20;4.70;;;;;;;11.43;100.00;96000.53;1027488;28;20270;-72
2023/05/24 02:27:48;;;;;;;8.48;5.35;;;;;;;11.43;100.00;95997.91;1024520;28;20117;-71
2023/05/24 02:28:18;;;;;;;6.32;4.47;;;;;;;11.44;100.00;95991.63;1027469;28;20484;-71
2023/05/24 02:28:49;;;;;;;7.22;5.00;;;;;;;11.47;100.00;95999.00;1023436;29;20034;-72
2023/05/24 02:29:20;;;;;;;5.50;4.68;;;;;;;11.42;100.00;95991.09;1019534;29;20024;-71
2023/05/24 02:29:51;;;;;;;8.27;5.20;;;;;;;11.38;100.00;95992.66;1019401;29;20031;-71
2023/05/24 02:30:22;;;;;;;8.07;5.10;;;;;;;11.44;100.00;95989.00;1011722;29;20434;-72
2023/05/24 02:30:52;;;;;;;8.80;4.82;;;;;;;11.47;100.00;95995.59;1023483;29;20483;-72
2023/05/24 02:31:24;;;;;;;6.85;4.05;;;;;;;11.48;100.00;95995.31;1022631;28;20042;-72
2023/05/24 02:31:55;;;;;;;6.50;4.38;;;;;;;11.49;100.00;95996.09;1023379;28;20069;-72
2023/05/24 02:32:26;;;;;;;6.60;4.60;;;;;;;11.50;100.00;95993.22;1023586;29;20335;-72
2023/05/24 02:32:57;;;;;;;8.52;4.82;;;;;;;11.36;100.00;95976.38;1027365;28;20023;-72
2023/05/24 02:33:28;;;;;;;7.10;4.90;;;;;;;11.55;100.00;95995.84;1027428;28;20034;-71